ěÝzenÝ letovÚho provozu ╚eskÚ republiky
Letiste: LKLN Aktualizace: 01.03.2021 19:26:23  UTC
 METAR LKLN 01.03. 19:30 ...
METAR LKLN 011930Z AUTO VRB02KT 6000 NCD 03/03 Q1034=